sensor_id;sensor_type;location;lat;lon;timestamp;temperature;humidity
14016;DHT22;7083;48.854;9.158;2023-04-03T00:00:38;3.80;99.90
14016;DHT22;7083;48.854;9.158;2023-04-03T00:03:05;3.80;99.90
14016;DHT22;7083;48.854;9.158;2023-04-03T00:05:32;3.70;99.90
14016;DHT22;7083;48.854;9.158;2023-04-03T00:07:59;3.70;99.90
14016;DHT22;7083;48.854;9.158;2023-04-03T00:10:27;3.70;99.90
14016;DHT22;7083;48.854;9.158;2023-04-03T00:12:55;3.70;99.90
14016;DHT22;7083;48.854;9.158;2023-04-03T00:15:22;3.70;99.90
14016;DHT22;7083;48.854;9.158;2023-04-03T00:17:49;3.60;99.90
14016;DHT22;7083;48.854;9.158;2023-04-03T00:20:16;3.60;99.90
14016;DHT22;7083;48.854;9.158;2023-04-03T00:22:42;3.60;99.90
14016;DHT22;7083;48.854;9.158;2023-04-03T00:25:09;3.60;99.90
14016;DHT22;7083;48.854;9.158;2023-04-03T00:27:36;3.60;99.90
14016;DHT22;7083;48.854;9.158;2023-04-03T00:30:06;3.60;99.90
14016;DHT22;7083;48.854;9.158;2023-04-03T00:32:33;3.60;99.90
14016;DHT22;7083;48.854;9.158;2023-04-03T00:35:00;3.70;99.90
14016;DHT22;7083;48.854;9.158;2023-04-03T00:37:27;3.60;99.90
14016;DHT22;7083;48.854;9.158;2023-04-03T00:39:53;3.60;99.90
14016;DHT22;7083;48.854;9.158;2023-04-03T00:42:21;3.60;99.90
14016;DHT22;7083;48.854;9.158;2023-04-03T00:45:32;3.60;99.90
14016;DHT22;7083;48.854;9.158;2023-04-03T00:48:17;3.60;99.90
14016;DHT22;7083;48.854;9.158;2023-04-03T00:50:45;3.60;99.90
14016;DHT22;7083;48.854;9.158;2023-04-03T00:53:14;3.60;99.90
14016;DHT22;7083;48.854;9.158;2023-04-03T00:55:43;3.60;99.90
14016;DHT22;7083;48.854;9.158;2023-04-03T00:58:10;3.60;99.90
14016;DHT22;7083;48.854;9.158;2023-04-03T01:00:43;3.50;99.90
14016;DHT22;7083;48.854;9.158;2023-04-03T01:03:12;3.50;99.90
14016;DHT22;7083;48.854;9.158;2023-04-03T01:05:40;3.50;99.90
14016;DHT22;7083;48.854;9.158;2023-04-03T01:08:06;3.50;99.90
14016;DHT22;7083;48.854;9.158;2023-04-03T01:10:33;3.40;99.90
14016;DHT22;7083;48.854;9.158;2023-04-03T01:13:00;3.40;99.90
14016;DHT22;7083;48.854;9.158;2023-04-03T01:15:27;3.40;99.90
14016;DHT22;7083;48.854;9.158;2023-04-03T01:17:57;3.40;99.90
14016;DHT22;7083;48.854;9.158;2023-04-03T01:20:50;3.30;99.90
14016;DHT22;7083;48.854;9.158;2023-04-03T01:23:28;3.30;99.90
14016;DHT22;7083;48.854;9.158;2023-04-03T01:25:59;3.30;99.90
14016;DHT22;7083;48.854;9.158;2023-04-03T01:28:27;3.30;99.90
14016;DHT22;7083;48.854;9.158;2023-04-03T01:31:00;3.30;99.90
14016;DHT22;7083;48.854;9.158;2023-04-03T01:33:30;3.30;99.90
14016;DHT22;7083;48.854;9.158;2023-04-03T01:35:57;3.20;99.90
14016;DHT22;7083;48.854;9.158;2023-04-03T01:38:24;3.20;99.90
14016;DHT22;7083;48.854;9.158;2023-04-03T01:40:50;3.30;99.90
14016;DHT22;7083;48.854;9.158;2023-04-03T01:43:17;3.30;99.90
14016;DHT22;7083;48.854;9.158;2023-04-03T01:45:44;3.30;99.90
14016;DHT22;7083;48.854;9.158;2023-04-03T01:48:12;3.20;99.90
14016;DHT22;7083;48.854;9.158;2023-04-03T01:50:40;3.20;99.90
14016;DHT22;7083;48.854;9.158;2023-04-03T01:53:06;3.20;99.90
14016;DHT22;7083;48.854;9.158;2023-04-03T01:55:33;3.20;99.90
14016;DHT22;7083;48.854;9.158;2023-04-03T01:58:00;3.20;99.90
14016;DHT22;7083;48.854;9.158;2023-04-03T02:00:26;3.10;99.90
14016;DHT22;7083;48.854;9.158;2023-04-03T02:02:53;3.10;99.90
14016;DHT22;7083;48.854;9.158;2023-04-03T02:05:20;3.10;99.90
14016;DHT22;7083;48.854;9.158;2023-04-03T02:07:48;3.20;99.90
14016;DHT22;7083;48.854;9.158;2023-04-03T02:10:16;3.10;99.90
14016;DHT22;7083;48.854;9.158;2023-04-03T02:12:42;3.10;99.90
14016;DHT22;7083;48.854;9.158;2023-04-03T02:15:09;3.20;99.90
14016;DHT22;7083;48.854;9.158;2023-04-03T02:17:36;3.20;99.90
14016;DHT22;7083;48.854;9.158;2023-04-03T02:20:03;3.20;99.90
14016;DHT22;7083;48.854;9.158;2023-04-03T02:22:30;3.20;99.90
14016;DHT22;7083;48.854;9.158;2023-04-03T02:24:58;3.20;99.90
14016;DHT22;7083;48.854;9.158;2023-04-03T02:27:25;3.20;99.90
14016;DHT22;7083;48.854;9.158;2023-04-03T02:29:52;3.20;99.90
14016;DHT22;7083;48.854;9.158;2023-04-03T02:32:19;3.20;99.90
14016;DHT22;7083;48.854;9.158;2023-04-03T02:34:46;3.20;99.90
14016;DHT22;7083;48.854;9.158;2023-04-03T02:37:12;3.20;99.90
14016;DHT22;7083;48.854;9.158;2023-04-03T02:39:39;3.20;99.90
14016;DHT22;7083;48.854;9.158;2023-04-03T02:42:07;3.20;99.90
14016;DHT22;7083;48.854;9.158;2023-04-03T02:44:34;3.20;99.90
14016;DHT22;7083;48.854;9.158;2023-04-03T02:47:01;3.20;99.90
14016;DHT22;7083;48.854;9.158;2023-04-03T02:49:28;3.20;99.90
14016;DHT22;7083;48.854;9.158;2023-04-03T02:51:55;3.30;99.90
14016;DHT22;7083;48.854;9.158;2023-04-03T02:54:21;3.30;99.90
14016;DHT22;7083;48.854;9.158;2023-04-03T02:56:48;3.30;99.90
14016;DHT22;7083;48.854;9.158;2023-04-03T02:59:16;3.30;99.90
14016;DHT22;7083;48.854;9.158;2023-04-03T03:01:43;3.30;99.90
14016;DHT22;7083;48.854;9.158;2023-04-03T03:04:10;3.40;99.90
14016;DHT22;7083;48.854;9.158;2023-04-03T03:06:37;3.40;99.90
14016;DHT22;7083;48.854;9.158;2023-04-03T03:09:04;3.40;99.90
14016;DHT22;7083;48.854;9.158;2023-04-03T03:11:31;3.40;99.90
14016;DHT22;7083;48.854;9.158;2023-04-03T03:13:58;3.40;99.90
14016;DHT22;7083;48.854;9.158;2023-04-03T03:16:26;3.40;99.90
14016;DHT22;7083;48.854;9.158;2023-04-03T03:18:52;3.40;99.90
14016;DHT22;7083;48.854;9.158;2023-04-03T03:21:19;3.40;99.90
14016;DHT22;7083;48.854;9.158;2023-04-03T03:23:46;3.40;99.90
14016;DHT22;7083;48.854;9.158;2023-04-03T03:26:13;3.50;99.60
14016;DHT22;7083;48.854;9.158;2023-04-03T03:28:40;3.40;99.90
14016;DHT22;7083;48.854;9.158;2023-04-03T03:31:08;3.50;99.90
14016;DHT22;7083;48.854;9.158;2023-04-03T03:33:36;3.50;99.90
14016;DHT22;7083;48.854;9.158;2023-04-03T03:36:03;3.50;99.10
14016;DHT22;7083;48.854;9.158;2023-04-03T03:38:30;3.50;98.90
14016;DHT22;7083;48.854;9.158;2023-04-03T03:40:57;3.50;99.50
14016;DHT22;7083;48.854;9.158;2023-04-03T03:43:24;5.00;99.90
14016;DHT22;7083;48.854;9.158;2023-04-03T03:45:51;3.50;99.90
14016;DHT22;7083;48.854;9.158;2023-04-03T03:48:18;3.50;99.90
14016;DHT22;7083;48.854;9.158;2023-04-03T03:50:47;3.50;99.50
14016;DHT22;7083;48.854;9.158;2023-04-03T03:53:14;3.50;99.10
14016;DHT22;7083;48.854;9.158;2023-04-03T03:55:41;3.50;98.90
14016;DHT22;7083;48.854;9.158;2023-04-03T03:58:08;3.50;98.80
14016;DHT22;7083;48.854;9.158;2023-04-03T04:00:35;3.50;98.60
14016;DHT22;7083;48.854;9.158;2023-04-03T04:03:01;3.50;98.90
14016;DHT22;7083;48.854;9.158;2023-04-03T04:05:28;3.50;99.10
14016;DHT22;7083;48.854;9.158;2023-04-03T04:07:57;3.50;98.50
14016;DHT22;7083;48.854;9.158;2023-04-03T04:10:24;3.50;98.80
14016;DHT22;7083;48.854;9.158;2023-04-03T04:12:51;3.50;97.90
14016;DHT22;7083;48.854;9.158;2023-04-03T04:15:17;3.60;98.30
14016;DHT22;7083;48.854;9.158;2023-04-03T04:17:44;3.60;97.90
14016;DHT22;7083;48.854;9.158;2023-04-03T04:20:11;3.60;97.80
14016;DHT22;7083;48.854;9.158;2023-04-03T04:22:38;3.60;97.80
14016;DHT22;7083;48.854;9.158;2023-04-03T04:25:07;3.60;97.50
14016;DHT22;7083;48.854;9.158;2023-04-03T04:27:34;3.60;96.90
14016;DHT22;7083;48.854;9.158;2023-04-03T04:30:00;3.60;96.90
14016;DHT22;7083;48.854;9.158;2023-04-03T04:32:28;3.50;97.10
14016;DHT22;7083;48.854;9.158;2023-04-03T04:34:54;3.50;97.30
14016;DHT22;7083;48.854;9.158;2023-04-03T04:37:21;3.50;97.50
14016;DHT22;7083;48.854;9.158;2023-04-03T04:39:48;3.50;97.60
14016;DHT22;7083;48.854;9.158;2023-04-03T04:42:22;3.50;97.00
14016;DHT22;7083;48.854;9.158;2023-04-03T04:44:49;4.30;97.30
14016;DHT22;7083;48.854;9.158;2023-04-03T04:47:16;3.40;97.30
14016;DHT22;7083;48.854;9.158;2023-04-03T04:49:43;3.40;97.20
14016;DHT22;7083;48.854;9.158;2023-04-03T04:52:09;3.20;96.00
14016;DHT22;7083;48.854;9.158;2023-04-03T04:54:36;3.40;95.50
14016;DHT22;7083;48.854;9.158;2023-04-03T04:57:03;3.40;95.50
14016;DHT22;7083;48.854;9.158;2023-04-03T04:59:31;3.40;95.20
14016;DHT22;7083;48.854;9.158;2023-04-03T05:01:58;3.30;95.40
14016;DHT22;7083;48.854;9.158;2023-04-03T05:04:25;3.40;95.40
14016;DHT22;7083;48.854;9.158;2023-04-03T05:06:51;3.40;95.20
14016;DHT22;7083;48.854;9.158;2023-04-03T05:09:18;3.50;95.50
14016;DHT22;7083;48.854;9.158;2023-04-03T05:11:45;3.50;96.00
14016;DHT22;7083;48.854;9.158;2023-04-03T05:14:12;3.50;96.30
14016;DHT22;7083;48.854;9.158;2023-04-03T05:16:40;3.50;96.60
14016;DHT22;7083;48.854;9.158;2023-04-03T05:19:07;3.50;96.90
14016;DHT22;7083;48.854;9.158;2023-04-03T05:21:34;3.50;96.70
14016;DHT22;7083;48.854;9.158;2023-04-03T05:24:01;3.50;96.80
14016;DHT22;7083;48.854;9.158;2023-04-03T05:26:29;3.60;96.90
14016;DHT22;7083;48.854;9.158;2023-04-03T05:28:56;3.60;97.00
14016;DHT22;7083;48.854;9.158;2023-04-03T05:31:22;3.50;97.10
14016;DHT22;7083;48.854;9.158;2023-04-03T05:33:51;3.50;97.50
14016;DHT22;7083;48.854;9.158;2023-04-03T05:36:17;3.50;98.00
14016;DHT22;7083;48.854;9.158;2023-04-03T05:38:44;3.40;98.60
14016;DHT22;7083;48.854;9.158;2023-04-03T05:41:11;3.40;98.90
14016;DHT22;7083;48.854;9.158;2023-04-03T05:43:38;3.40;99.50
14016;DHT22;7083;48.854;9.158;2023-04-03T05:46:09;3.30;99.50
14016;DHT22;7083;48.854;9.158;2023-04-03T05:48:36;3.30;99.80
14016;DHT22;7083;48.854;9.158;2023-04-03T05:51:05;3.30;99.70
14016;DHT22;7083;48.854;9.158;2023-04-03T05:53:35;3.30;99.50
14016;DHT22;7083;48.854;9.158;2023-04-03T05:56:04;3.30;99.40
14016;DHT22;7083;48.854;9.158;2023-04-03T05:58:31;4.30;99.90
14016;DHT22;7083;48.854;9.158;2023-04-03T06:00:58;3.50;99.50
14016;DHT22;7083;48.854;9.158;2023-04-03T06:03:25;6.20;98.90
14016;DHT22;7083;48.854;9.158;2023-04-03T06:05:52;3.60;97.40
14016;DHT22;7083;48.854;9.158;2023-04-03T06:08:20;3.60;97.40
14016;DHT22;7083;48.854;9.158;2023-04-03T06:10:47;3.70;96.90
14016;DHT22;7083;48.854;9.158;2023-04-03T06:13:14;3.70;96.40
14016;DHT22;7083;48.854;9.158;2023-04-03T06:15:40;3.80;97.10
14016;DHT22;7083;48.854;9.158;2023-04-03T06:18:07;3.80;97.40
14016;DHT22;7083;48.854;9.158;2023-04-03T06:20:34;3.90;96.50
14016;DHT22;7083;48.854;9.158;2023-04-03T06:23:00;3.90;96.40
14016;DHT22;7083;48.854;9.158;2023-04-03T06:25:29;3.90;96.20
14016;DHT22;7083;48.854;9.158;2023-04-03T06:27:57;4.00;95.60
14016;DHT22;7083;48.854;9.158;2023-04-03T06:30:23;4.10;96.30
14016;DHT22;7083;48.854;9.158;2023-04-03T06:32:50;4.10;95.90
14016;DHT22;7083;48.854;9.158;2023-04-03T06:35:17;4.10;95.80
14016;DHT22;7083;48.854;9.158;2023-04-03T06:37:44;4.20;96.10
14016;DHT22;7083;48.854;9.158;2023-04-03T06:40:16;4.30;96.00
14016;DHT22;7083;48.854;9.158;2023-04-03T06:42:46;4.40;96.40
14016;DHT22;7083;48.854;9.158;2023-04-03T06:45:13;4.50;96.50
14016;DHT22;7083;48.854;9.158;2023-04-03T06:47:40;4.50;95.80
14016;DHT22;7083;48.854;9.158;2023-04-03T06:50:26;6.20;96.70
14016;DHT22;7083;48.854;9.158;2023-04-03T06:53:29;4.60;96.10
14016;DHT22;7083;48.854;9.158;2023-04-03T06:55:56;5.10;96.10
14016;DHT22;7083;48.854;9.158;2023-04-03T06:58:24;4.90;95.80
14016;DHT22;7083;48.854;9.158;2023-04-03T07:00:50;5.10;95.60
14016;DHT22;7083;48.854;9.158;2023-04-03T07:03:17;5.10;95.30
14016;DHT22;7083;48.854;9.158;2023-04-03T07:08:37;5.20;93.80
14016;DHT22;7083;48.854;9.158;2023-04-03T07:11:05;6.70;94.90
14016;DHT22;7083;48.854;9.158;2023-04-03T07:13:33;5.10;94.10
14016;DHT22;7083;48.854;9.158;2023-04-03T07:16:00;7.00;94.80
14016;DHT22;7083;48.854;9.158;2023-04-03T07:18:33;5.10;94.40
14016;DHT22;7083;48.854;9.158;2023-04-03T07:24:23;5.30;94.20
14016;DHT22;7083;48.854;9.158;2023-04-03T07:24:45;5.30;93.80
14016;DHT22;7083;48.854;9.158;2023-04-03T07:26:52;5.30;94.30
14016;DHT22;7083;48.854;9.158;2023-04-03T07:29:20;5.40;93.80
14016;DHT22;7083;48.854;9.158;2023-04-03T07:31:47;5.50;93.80
14016;DHT22;7083;48.854;9.158;2023-04-03T07:34:14;5.50;93.30
14016;DHT22;7083;48.854;9.158;2023-04-03T07:36:41;5.70;93.90
14016;DHT22;7083;48.854;9.158;2023-04-03T07:39:08;5.60;92.80
14016;DHT22;7083;48.854;9.158;2023-04-03T07:41:35;5.60;93.20
14016;DHT22;7083;48.854;9.158;2023-04-03T07:44:04;5.70;93.00
14016;DHT22;7083;48.854;9.158;2023-04-03T07:46:33;5.70;93.00
14016;DHT22;7083;48.854;9.158;2023-04-03T07:49:00;6.50;93.80
14016;DHT22;7083;48.854;9.158;2023-04-03T07:51:39;6.20;92.60
14016;DHT22;7083;48.854;9.158;2023-04-03T07:54:07;5.50;92.90
14016;DHT22;7083;48.854;9.158;2023-04-03T07:56:44;3.90;91.80
14016;DHT22;7083;48.854;9.158;2023-04-03T07:59:16;5.60;91.90
14016;DHT22;7083;48.854;9.158;2023-04-03T08:01:44;5.60;92.30
14016;DHT22;7083;48.854;9.158;2023-04-03T08:04:11;5.70;92.80
14016;DHT22;7083;48.854;9.158;2023-04-03T08:06:38;5.90;92.30
14016;DHT22;7083;48.854;9.158;2023-04-03T08:09:05;6.00;92.10
14016;DHT22;7083;48.854;9.158;2023-04-03T08:11:31;6.10;92.00
14016;DHT22;7083;48.854;9.158;2023-04-03T08:13:58;6.30;92.30
14016;DHT22;7083;48.854;9.158;2023-04-03T08:16:25;6.50;91.70
14016;DHT22;7083;48.854;9.158;2023-04-03T08:18:54;6.60;91.80
14016;DHT22;7083;48.854;9.158;2023-04-03T08:21:23;6.60;91.60
14016;DHT22;7083;48.854;9.158;2023-04-03T08:23:51;6.50;91.30
14016;DHT22;7083;48.854;9.158;2023-04-03T08:26:19;6.40;91.40
14016;DHT22;7083;48.854;9.158;2023-04-03T08:28:47;6.40;91.50
14016;DHT22;7083;48.854;9.158;2023-04-03T08:31:17;6.20;91.50
14016;DHT22;7083;48.854;9.158;2023-04-03T08:33:44;6.30;91.60
14016;DHT22;7083;48.854;9.158;2023-04-03T08:36:19;6.40;92.00
14016;DHT22;7083;48.854;9.158;2023-04-03T08:39:16;6.70;92.00
14016;DHT22;7083;48.854;9.158;2023-04-03T08:41:44;7.00;91.50
14016;DHT22;7083;48.854;9.158;2023-04-03T08:44:18;7.20;91.50
14016;DHT22;7083;48.854;9.158;2023-04-03T08:46:58;8.10;91.60
14016;DHT22;7083;48.854;9.158;2023-04-03T08:52:45;7.50;89.20
14016;DHT22;7083;48.854;9.158;2023-04-03T08:55:20;7.40;89.00
14016;DHT22;7083;48.854;9.158;2023-04-03T08:57:51;7.60;89.60
14016;DHT22;7083;48.854;9.158;2023-04-03T09:00:23;7.80;90.00
14016;DHT22;7083;48.854;9.158;2023-04-03T09:02:52;8.10;90.10
14016;DHT22;7083;48.854;9.158;2023-04-03T09:05:20;8.30;87.50
14016;DHT22;7083;48.854;9.158;2023-04-03T09:08:21;8.20;87.20
14016;DHT22;7083;48.854;9.158;2023-04-03T09:10:49;8.40;87.40
14016;DHT22;7083;48.854;9.158;2023-04-03T09:13:26;8.50;86.30
14016;DHT22;7083;48.854;9.158;2023-04-03T09:15:56;8.70;86.60
14016;DHT22;7083;48.854;9.158;2023-04-03T09:18:35;8.30;83.70
14016;DHT22;7083;48.854;9.158;2023-04-03T09:21:12;8.40;85.00
14016;DHT22;7083;48.854;9.158;2023-04-03T09:23:49;8.30;84.10
14016;DHT22;7083;48.854;9.158;2023-04-03T09:26:26;8.30;83.20
14016;DHT22;7083;48.854;9.158;2023-04-03T09:28:58;8.40;83.70
14016;DHT22;7083;48.854;9.158;2023-04-03T09:31:36;8.40;83.30
14016;DHT22;7083;48.854;9.158;2023-04-03T09:34:17;8.20;80.30
14016;DHT22;7083;48.854;9.158;2023-04-03T09:36:59;8.40;83.70
14016;DHT22;7083;48.854;9.158;2023-04-03T09:39:51;8.40;82.30
14016;DHT22;7083;48.854;9.158;2023-04-03T09:42:23;8.80;81.60
14016;DHT22;7083;48.854;9.158;2023-04-03T09:44:55;8.70;80.40
14016;DHT22;7083;48.854;9.158;2023-04-03T09:47:35;8.80;78.80
14016;DHT22;7083;48.854;9.158;2023-04-03T09:50:19;9.10;77.60
14016;DHT22;7083;48.854;9.158;2023-04-03T09:52:47;8.50;78.20
14016;DHT22;7083;48.854;9.158;2023-04-03T09:55:18;8.50;78.30
14016;DHT22;7083;48.854;9.158;2023-04-03T09:57:47;8.60;79.90
14016;DHT22;7083;48.854;9.158;2023-04-03T10:00:21;8.60;80.60
14016;DHT22;7083;48.854;9.158;2023-04-03T10:02:51;8.70;80.60
14016;DHT22;7083;48.854;9.158;2023-04-03T10:10:32;9.00;81.40
14016;DHT22;7083;48.854;9.158;2023-04-03T10:13:06;9.00;78.30
14016;DHT22;7083;48.854;9.158;2023-04-03T10:15:37;9.00;76.00
14016;DHT22;7083;48.854;9.158;2023-04-03T10:18:13;9.00;77.60
14016;DHT22;7083;48.854;9.158;2023-04-03T10:24:14;9.10;76.80
14016;DHT22;7083;48.854;9.158;2023-04-03T10:26:53;8.90;78.90
14016;DHT22;7083;48.854;9.158;2023-04-03T10:29:35;8.80;76.30
14016;DHT22;7083;48.854;9.158;2023-04-03T10:32:22;8.90;79.20
14016;DHT22;7083;48.854;9.158;2023-04-03T10:35:00;9.00;78.00
14016;DHT22;7083;48.854;9.158;2023-04-03T10:37:33;9.00;75.60
14016;DHT22;7083;48.854;9.158;2023-04-03T10:40:10;8.70;75.80
14016;DHT22;7083;48.854;9.158;2023-04-03T10:42:52;8.90;77.20
14016;DHT22;7083;48.854;9.158;2023-04-03T10:45:24;8.90;75.40
14016;DHT22;7083;48.854;9.158;2023-04-03T10:48:04;8.70;75.90
14016;DHT22;7083;48.854;9.158;2023-04-03T10:50:41;8.70;73.50
14016;DHT22;7083;48.854;9.158;2023-04-03T10:53:17;9.90;76.10
14016;DHT22;7083;48.854;9.158;2023-04-03T10:55:52;8.70;72.00
14016;DHT22;7083;48.854;9.158;2023-04-03T10:58:27;8.40;74.40
14016;DHT22;7083;48.854;9.158;2023-04-03T11:01:01;8.50;75.40
14016;DHT22;7083;48.854;9.158;2023-04-03T11:03:31;8.70;77.30
14016;DHT22;7083;48.854;9.158;2023-04-03T11:06:01;9.70;74.60
14016;DHT22;7083;48.854;9.158;2023-04-03T11:08:34;8.60;74.70
14016;DHT22;7083;48.854;9.158;2023-04-03T11:11:05;8.70;75.50
14016;DHT22;7083;48.854;9.158;2023-04-03T11:13:37;8.90;74.80
14016;DHT22;7083;48.854;9.158;2023-04-03T11:16:05;10.10;72.20
14016;DHT22;7083;48.854;9.158;2023-04-03T11:18:37;8.90;72.30
14016;DHT22;7083;48.854;9.158;2023-04-03T11:21:09;8.90;72.00
14016;DHT22;7083;48.854;9.158;2023-04-03T11:23:40;9.10;72.60
14016;DHT22;7083;48.854;9.158;2023-04-03T11:26:13;10.70;73.80
14016;DHT22;7083;48.854;9.158;2023-04-03T11:28:52;8.70;75.30
14016;DHT22;7083;48.854;9.158;2023-04-03T11:31:30;8.50;74.30
14016;DHT22;7083;48.854;9.158;2023-04-03T11:34:13;9.00;75.30
14016;DHT22;7083;48.854;9.158;2023-04-03T11:36:46;8.40;74.20
14016;DHT22;7083;48.854;9.158;2023-04-03T11:39:29;9.20;75.00
14016;DHT22;7083;48.854;9.158;2023-04-03T11:42:19;8.80;74.00
14016;DHT22;7083;48.854;9.158;2023-04-03T11:44:51;8.60;73.60
14016;DHT22;7083;48.854;9.158;2023-04-03T11:47:46;7.90;72.80
14016;DHT22;7083;48.854;9.158;2023-04-03T11:50:31;8.40;72.90
14016;DHT22;7083;48.854;9.158;2023-04-03T11:53:00;8.50;73.50
14016;DHT22;7083;48.854;9.158;2023-04-03T11:59:19;8.90;74.70
14016;DHT22;7083;48.854;9.158;2023-04-03T12:01:50;9.00;74.50
14016;DHT22;7083;48.854;9.158;2023-04-03T12:04:19;9.10;73.30
14016;DHT22;7083;48.854;9.158;2023-04-03T12:06:53;9.30;72.70
14016;DHT22;7083;48.854;9.158;2023-04-03T12:09:35;9.40;72.30
14016;DHT22;7083;48.854;9.158;2023-04-03T12:12:26;9.40;70.20
14016;DHT22;7083;48.854;9.158;2023-04-03T12:15:22;9.60;72.60
14016;DHT22;7083;48.854;9.158;2023-04-03T12:17:53;10.10;68.60
14016;DHT22;7083;48.854;9.158;2023-04-03T12:20:51;11.70;69.70
14016;DHT22;7083;48.854;9.158;2023-04-03T12:23:28;9.70;69.90
14016;DHT22;7083;48.854;9.158;2023-04-03T12:26:03;9.90;67.70
14016;DHT22;7083;48.854;9.158;2023-04-03T12:28:37;8.30;66.60
14016;DHT22;7083;48.854;9.158;2023-04-03T12:31:09;9.40;69.90
14016;DHT22;7083;48.854;9.158;2023-04-03T12:33:57;9.50;71.20
14016;DHT22;7083;48.854;9.158;2023-04-03T12:36:38;10.10;66.50
14016;DHT22;7083;48.854;9.158;2023-04-03T12:43:01;10.00;65.80
14016;DHT22;7083;48.854;9.158;2023-04-03T12:45:46;11.40;67.10
14016;DHT22;7083;48.854;9.158;2023-04-03T12:48:17;9.90;68.90
14016;DHT22;7083;48.854;9.158;2023-04-03T12:50:46;10.60;68.50
14016;DHT22;7083;48.854;9.158;2023-04-03T12:53:16;9.20;68.80
14016;DHT22;7083;48.854;9.158;2023-04-03T12:55:44;9.30;68.60
14016;DHT22;7083;48.854;9.158;2023-04-03T12:58:20;9.10;68.60
14016;DHT22;7083;48.854;9.158;2023-04-03T13:01:04;9.10;67.80
14016;DHT22;7083;48.854;9.158;2023-04-03T13:03:41;9.20;68.80
14016;DHT22;7083;48.854;9.158;2023-04-03T13:06:14;9.30;68.20
14016;DHT22;7083;48.854;9.158;2023-04-03T13:08:49;9.20;70.30
14016;DHT22;7083;48.854;9.158;2023-04-03T13:11:15;10.00;69.60
14016;DHT22;7083;48.854;9.158;2023-04-03T13:13:58;9.00;69.50
14016;DHT22;7083;48.854;9.158;2023-04-03T13:16:26;8.90;71.20
14016;DHT22;7083;48.854;9.158;2023-04-03T13:18:54;10.50;69.50
14016;DHT22;7083;48.854;9.158;2023-04-03T13:21:26;9.20;70.50
14016;DHT22;7083;48.854;9.158;2023-04-03T13:23:56;9.80;71.60
14016;DHT22;7083;48.854;9.158;2023-04-03T13:26:27;9.20;72.50
14016;DHT22;7083;48.854;9.158;2023-04-03T13:28:57;10.90;70.30
14016;DHT22;7083;48.854;9.158;2023-04-03T13:31:32;9.00;66.90
14016;DHT22;7083;48.854;9.158;2023-04-03T13:34:07;9.50;68.50
14016;DHT22;7083;48.854;9.158;2023-04-03T13:36:40;10.10;68.10
14016;DHT22;7083;48.854;9.158;2023-04-03T13:39:23;9.50;68.70
14016;DHT22;7083;48.854;9.158;2023-04-03T13:41:54;9.50;66.20
14016;DHT22;7083;48.854;9.158;2023-04-03T13:44:33;9.90;67.50
14016;DHT22;7083;48.854;9.158;2023-04-03T13:47:17;9.90;66.50
14016;DHT22;7083;48.854;9.158;2023-04-03T13:49:59;11.10;62.30
14016;DHT22;7083;48.854;9.158;2023-04-03T13:52:28;12.10;61.30
14016;DHT22;7083;48.854;9.158;2023-04-03T13:54:58;14.00;63.50
14016;DHT22;7083;48.854;9.158;2023-04-03T13:57:25;12.70;59.70
14016;DHT22;7083;48.854;9.158;2023-04-03T14:02:42;12.30;59.20
14016;DHT22;7083;48.854;9.158;2023-04-03T14:05:13;11.80;58.80
14016;DHT22;7083;48.854;9.158;2023-04-03T14:07:49;12.30;60.90
14016;DHT22;7083;48.854;9.158;2023-04-03T14:10:16;11.90;58.70
14016;DHT22;7083;48.854;9.158;2023-04-03T14:12:46;12.80;59.80
14016;DHT22;7083;48.854;9.158;2023-04-03T14:15:32;11.50;57.70
14016;DHT22;7083;48.854;9.158;2023-04-03T14:18:01;11.20;59.20
14016;DHT22;7083;48.854;9.158;2023-04-03T14:20:42;12.50;60.00
14016;DHT22;7083;48.854;9.158;2023-04-03T14:23:15;11.30;60.90
14016;DHT22;7083;48.854;9.158;2023-04-03T14:25:54;11.00;59.60
14016;DHT22;7083;48.854;9.158;2023-04-03T14:28:22;10.90;60.80
14016;DHT22;7083;48.854;9.158;2023-04-03T14:30:50;11.30;59.00
14016;DHT22;7083;48.854;9.158;2023-04-03T14:33:21;10.70;59.10
14016;DHT22;7083;48.854;9.158;2023-04-03T14:39:17;11.30;59.50
14016;DHT22;7083;48.854;9.158;2023-04-03T14:41:47;13.30;58.90
14016;DHT22;7083;48.854;9.158;2023-04-03T14:44:21;12.40;55.70
14016;DHT22;7083;48.854;9.158;2023-04-03T14:47:15;11.90;55.90
14016;DHT22;7083;48.854;9.158;2023-04-03T14:50:07;11.60;58.10
14016;DHT22;7083;48.854;9.158;2023-04-03T14:52:36;11.10;57.30
14016;DHT22;7083;48.854;9.158;2023-04-03T14:55:06;11.40;59.20
14016;DHT22;7083;48.854;9.158;2023-04-03T14:57:47;11.90;59.70
14016;DHT22;7083;48.854;9.158;2023-04-03T15:00:21;13.70;55.10
14016;DHT22;7083;48.854;9.158;2023-04-03T15:06:03;15.60;48.00
14016;DHT22;7083;48.854;9.158;2023-04-03T15:09:12;15.00;48.70
14016;DHT22;7083;48.854;9.158;2023-04-03T15:12:02;11.60;48.40
14016;DHT22;7083;48.854;9.158;2023-04-03T15:14:31;13.90;51.20
14016;DHT22;7083;48.854;9.158;2023-04-03T15:16:59;16.20;52.40
14016;DHT22;7083;48.854;9.158;2023-04-03T15:19:36;17.10;48.40
14016;DHT22;7083;48.854;9.158;2023-04-03T15:22:09;19.00;47.70
14016;DHT22;7083;48.854;9.158;2023-04-03T15:24:39;21.60;45.10
14016;DHT22;7083;48.854;9.158;2023-04-03T15:27:06;19.10;43.00
14016;DHT22;7083;48.854;9.158;2023-04-03T15:29:38;17.70;45.30
14016;DHT22;7083;48.854;9.158;2023-04-03T15:32:09;16.30;46.60
14016;DHT22;7083;48.854;9.158;2023-04-03T15:34:49;14.80;49.40
14016;DHT22;7083;48.854;9.158;2023-04-03T15:37:33;14.00;50.40
14016;DHT22;7083;48.854;9.158;2023-04-03T15:40:03;12.80;52.50
14016;DHT22;7083;48.854;9.158;2023-04-03T15:42:30;11.80;52.80
14016;DHT22;7083;48.854;9.158;2023-04-03T15:44:57;12.00;54.10
14016;DHT22;7083;48.854;9.158;2023-04-03T15:47:36;13.50;52.80
14016;DHT22;7083;48.854;9.158;2023-04-03T15:50:06;16.00;52.20
14016;DHT22;7083;48.854;9.158;2023-04-03T15:52:37;18.10;48.10
14016;DHT22;7083;48.854;9.158;2023-04-03T15:55:07;19.90;44.70
14016;DHT22;7083;48.854;9.158;2023-04-03T15:57:34;21.10;41.70
14016;DHT22;7083;48.854;9.158;2023-04-03T16:00:01;19.10;40.70
14016;DHT22;7083;48.854;9.158;2023-04-03T16:02:32;17.70;42.60
14016;DHT22;7083;48.854;9.158;2023-04-03T16:05:00;17.50;43.00
14016;DHT22;7083;48.854;9.158;2023-04-03T16:07:26;17.50;44.50
14016;DHT22;7083;48.854;9.158;2023-04-03T16:09:57;17.70;43.80
14016;DHT22;7083;48.854;9.158;2023-04-03T16:12:24;16.20;45.30
14016;DHT22;7083;48.854;9.158;2023-04-03T16:14:51;14.80;47.90
14016;DHT22;7083;48.854;9.158;2023-04-03T16:17:18;13.60;48.90
14016;DHT22;7083;48.854;9.158;2023-04-03T16:25:26;10.60;56.10
14016;DHT22;7083;48.854;9.158;2023-04-03T16:27:53;10.00;55.30
14016;DHT22;7083;48.854;9.158;2023-04-03T16:30:19;9.60;57.60
14016;DHT22;7083;48.854;9.158;2023-04-03T16:32:46;9.50;57.30
14016;DHT22;7083;48.854;9.158;2023-04-03T16:35:13;9.20;59.20
14016;DHT22;7083;48.854;9.158;2023-04-03T16:37:43;9.20;59.60
14016;DHT22;7083;48.854;9.158;2023-04-03T16:40:26;8.50;59.20
14016;DHT22;7083;48.854;9.158;2023-04-03T16:42:53;9.40;61.40
14016;DHT22;7083;48.854;9.158;2023-04-03T16:45:27;9.30;61.50
14016;DHT22;7083;48.854;9.158;2023-04-03T16:48:10;9.00;60.70
14016;DHT22;7083;48.854;9.158;2023-04-03T16:50:57;8.20;61.80
14016;DHT22;7083;48.854;9.158;2023-04-03T16:53:24;7.90;62.10
14016;DHT22;7083;48.854;9.158;2023-04-03T16:55:57;7.70;62.00
14016;DHT22;7083;48.854;9.158;2023-04-03T16:58:27;7.50;63.30
14016;DHT22;7083;48.854;9.158;2023-04-03T17:01:00;7.20;64.00
14016;DHT22;7083;48.854;9.158;2023-04-03T17:03:44;7.70;64.90